sensor_id;sensor_type;location;lat;lon;timestamp;P1;durP1;ratioP1;P2;durP2;ratioP2
14613;SDS011;7393;51.446;6.800;2023-04-03T00:01:24;6.80;;;4.70;;
14613;SDS011;7393;51.446;6.800;2023-04-03T00:03:51;8.40;;;5.03;;
14613;SDS011;7393;51.446;6.800;2023-04-03T00:06:18;9.73;;;5.80;;
14613;SDS011;7393;51.446;6.800;2023-04-03T00:08:45;10.10;;;6.07;;
14613;SDS011;7393;51.446;6.800;2023-04-03T00:11:13;10.97;;;6.37;;
14613;SDS011;7393;51.446;6.800;2023-04-03T00:13:40;13.20;;;6.70;;
14613;SDS011;7393;51.446;6.800;2023-04-03T00:16:07;8.47;;;6.53;;
14613;SDS011;7393;51.446;6.800;2023-04-03T00:18:35;9.27;;;6.47;;
14613;SDS011;7393;51.446;6.800;2023-04-03T00:21:03;9.93;;;6.53;;
14613;SDS011;7393;51.446;6.800;2023-04-03T00:23:30;8.93;;;5.90;;
14613;SDS011;7393;51.446;6.800;2023-04-03T00:25:57;8.00;;;6.27;;
14613;SDS011;7393;51.446;6.800;2023-04-03T00:28:25;9.13;;;6.43;;
14613;SDS011;7393;51.446;6.800;2023-04-03T00:30:52;8.27;;;6.13;;
14613;SDS011;7393;51.446;6.800;2023-04-03T00:33:19;8.00;;;6.10;;
14613;SDS011;7393;51.446;6.800;2023-04-03T00:35:46;8.57;;;5.57;;
14613;SDS011;7393;51.446;6.800;2023-04-03T00:38:14;8.93;;;5.87;;
14613;SDS011;7393;51.446;6.800;2023-04-03T00:40:42;8.83;;;5.53;;
14613;SDS011;7393;51.446;6.800;2023-04-03T00:43:11;7.57;;;5.50;;
14613;SDS011;7393;51.446;6.800;2023-04-03T00:45:42;7.50;;;5.13;;
14613;SDS011;7393;51.446;6.800;2023-04-03T00:48:11;8.00;;;5.40;;
14613;SDS011;7393;51.446;6.800;2023-04-03T00:50:41;7.70;;;5.43;;
14613;SDS011;7393;51.446;6.800;2023-04-03T00:53:10;10.63;;;5.37;;
14613;SDS011;7393;51.446;6.800;2023-04-03T00:55:39;6.60;;;5.30;;
14613;SDS011;7393;51.446;6.800;2023-04-03T00:58:07;7.23;;;4.93;;
14613;SDS011;7393;51.446;6.800;2023-04-03T01:00:36;6.23;;;5.03;;
14613;SDS011;7393;51.446;6.800;2023-04-03T01:03:06;6.60;;;5.27;;
14613;SDS011;7393;51.446;6.800;2023-04-03T01:05:32;7.43;;;5.17;;
14613;SDS011;7393;51.446;6.800;2023-04-03T01:07:59;6.57;;;4.60;;
14613;SDS011;7393;51.446;6.800;2023-04-03T01:10:27;6.73;;;5.03;;
14613;SDS011;7393;51.446;6.800;2023-04-03T01:12:54;6.97;;;4.80;;
14613;SDS011;7393;51.446;6.800;2023-04-03T01:15:22;6.73;;;4.70;;
14613;SDS011;7393;51.446;6.800;2023-04-03T01:17:51;7.30;;;4.60;;
14613;SDS011;7393;51.446;6.800;2023-04-03T01:23:41;7.63;;;4.97;;
14613;SDS011;7393;51.446;6.800;2023-04-03T01:26:19;7.30;;;4.80;;
14613;SDS011;7393;51.446;6.800;2023-04-03T01:28:46;7.77;;;4.90;;
14613;SDS011;7393;51.446;6.800;2023-04-03T01:31:15;6.30;;;4.63;;
14613;SDS011;7393;51.446;6.800;2023-04-03T01:33:50;5.40;;;4.70;;
14613;SDS011;7393;51.446;6.800;2023-04-03T01:36:18;6.33;;;4.73;;
14613;SDS011;7393;51.446;6.800;2023-04-03T01:38:46;8.47;;;5.40;;
14613;SDS011;7393;51.446;6.800;2023-04-03T01:41:13;7.07;;;5.03;;
14613;SDS011;7393;51.446;6.800;2023-04-03T01:43:40;7.30;;;5.10;;
14613;SDS011;7393;51.446;6.800;2023-04-03T01:46:07;6.80;;;4.83;;
14613;SDS011;7393;51.446;6.800;2023-04-03T01:48:34;7.90;;;5.23;;
14613;SDS011;7393;51.446;6.800;2023-04-03T01:51:02;7.87;;;5.27;;
14613;SDS011;7393;51.446;6.800;2023-04-03T01:53:29;8.20;;;5.43;;
14613;SDS011;7393;51.446;6.800;2023-04-03T01:55:56;9.17;;;5.53;;
14613;SDS011;7393;51.446;6.800;2023-04-03T01:58:22;9.17;;;5.20;;
14613;SDS011;7393;51.446;6.800;2023-04-03T02:00:50;7.70;;;5.07;;
14613;SDS011;7393;51.446;6.800;2023-04-03T02:03:17;7.17;;;5.37;;
14613;SDS011;7393;51.446;6.800;2023-04-03T02:05:44;10.53;;;5.90;;
14613;SDS011;7393;51.446;6.800;2023-04-03T02:08:12;8.93;;;5.43;;
14613;SDS011;7393;51.446;6.800;2023-04-03T02:10:39;8.80;;;4.93;;
14613;SDS011;7393;51.446;6.800;2023-04-03T02:13:06;8.53;;;5.37;;
14613;SDS011;7393;51.446;6.800;2023-04-03T02:15:32;7.50;;;5.10;;
14613;SDS011;7393;51.446;6.800;2023-04-03T02:17:59;7.63;;;5.53;;
14613;SDS011;7393;51.446;6.800;2023-04-03T02:20:26;8.70;;;5.43;;
14613;SDS011;7393;51.446;6.800;2023-04-03T02:22:53;6.23;;;5.20;;
14613;SDS011;7393;51.446;6.800;2023-04-03T02:25:21;8.03;;;5.20;;
14613;SDS011;7393;51.446;6.800;2023-04-03T02:27:48;8.33;;;5.73;;
14613;SDS011;7393;51.446;6.800;2023-04-03T02:30:15;7.37;;;4.80;;
14613;SDS011;7393;51.446;6.800;2023-04-03T02:32:42;9.47;;;5.23;;
14613;SDS011;7393;51.446;6.800;2023-04-03T02:35:09;6.63;;;5.00;;
14613;SDS011;7393;51.446;6.800;2023-04-03T02:37:37;8.27;;;5.60;;
14613;SDS011;7393;51.446;6.800;2023-04-03T02:40:06;8.87;;;5.30;;
14613;SDS011;7393;51.446;6.800;2023-04-03T02:42:35;7.23;;;4.80;;
14613;SDS011;7393;51.446;6.800;2023-04-03T02:45:02;8.83;;;5.13;;
14613;SDS011;7393;51.446;6.800;2023-04-03T02:47:30;6.53;;;4.67;;
14613;SDS011;7393;51.446;6.800;2023-04-03T02:49:56;6.70;;;4.10;;
14613;SDS011;7393;51.446;6.800;2023-04-03T02:52:23;7.50;;;4.37;;
14613;SDS011;7393;51.446;6.800;2023-04-03T02:54:50;7.07;;;4.70;;
14613;SDS011;7393;51.446;6.800;2023-04-03T02:57:17;8.10;;;4.40;;
14613;SDS011;7393;51.446;6.800;2023-04-03T02:59:46;9.67;;;4.47;;
14613;SDS011;7393;51.446;6.800;2023-04-03T03:02:12;5.57;;;3.90;;
14613;SDS011;7393;51.446;6.800;2023-04-03T03:04:39;5.43;;;3.87;;
14613;SDS011;7393;51.446;6.800;2023-04-03T03:07:06;7.00;;;4.17;;
14613;SDS011;7393;51.446;6.800;2023-04-03T03:09:32;7.73;;;4.00;;
14613;SDS011;7393;51.446;6.800;2023-04-03T03:11:59;7.53;;;3.70;;
14613;SDS011;7393;51.446;6.800;2023-04-03T03:14:26;4.93;;;3.37;;
14613;SDS011;7393;51.446;6.800;2023-04-03T03:16:54;6.23;;;3.27;;
14613;SDS011;7393;51.446;6.800;2023-04-03T03:19:21;5.80;;;3.50;;
14613;SDS011;7393;51.446;6.800;2023-04-03T03:21:48;6.03;;;3.43;;
14613;SDS011;7393;51.446;6.800;2023-04-03T03:24:15;5.40;;;3.10;;
14613;SDS011;7393;51.446;6.800;2023-04-03T03:26:42;5.80;;;3.27;;
14613;SDS011;7393;51.446;6.800;2023-04-03T03:29:09;5.37;;;2.90;;
14613;SDS011;7393;51.446;6.800;2023-04-03T03:31:35;5.20;;;2.90;;
14613;SDS011;7393;51.446;6.800;2023-04-03T03:34:04;4.17;;;2.47;;
14613;SDS011;7393;51.446;6.800;2023-04-03T03:36:30;8.30;;;3.07;;
14613;SDS011;7393;51.446;6.800;2023-04-03T03:38:57;4.60;;;2.57;;
14613;SDS011;7393;51.446;6.800;2023-04-03T03:41:24;5.47;;;2.83;;
14613;SDS011;7393;51.446;6.800;2023-04-03T03:43:51;4.70;;;2.30;;
14613;SDS011;7393;51.446;6.800;2023-04-03T03:46:18;4.77;;;2.27;;
14613;SDS011;7393;51.446;6.800;2023-04-03T03:48:45;3.70;;;2.53;;
14613;SDS011;7393;51.446;6.800;2023-04-03T03:51:13;5.23;;;2.43;;
14613;SDS011;7393;51.446;6.800;2023-04-03T03:53:40;5.23;;;2.53;;
14613;SDS011;7393;51.446;6.800;2023-04-03T03:56:07;6.97;;;2.50;;
14613;SDS011;7393;51.446;6.800;2023-04-03T03:58:33;4.23;;;2.07;;
14613;SDS011;7393;51.446;6.800;2023-04-03T04:01:01;4.10;;;2.00;;
14613;SDS011;7393;51.446;6.800;2023-04-03T04:03:28;5.97;;;2.57;;
14613;SDS011;7393;51.446;6.800;2023-04-03T04:05:55;5.00;;;2.20;;
14613;SDS011;7393;51.446;6.800;2023-04-03T04:08:23;4.30;;;2.33;;
14613;SDS011;7393;51.446;6.800;2023-04-03T04:10:50;5.73;;;2.70;;
14613;SDS011;7393;51.446;6.800;2023-04-03T04:13:17;3.97;;;2.13;;
14613;SDS011;7393;51.446;6.800;2023-04-03T04:15:44;5.47;;;2.20;;
14613;SDS011;7393;51.446;6.800;2023-04-03T04:18:11;4.57;;;2.27;;
14613;SDS011;7393;51.446;6.800;2023-04-03T04:20:37;3.27;;;1.80;;
14613;SDS011;7393;51.446;6.800;2023-04-03T04:23:04;5.80;;;2.20;;
14613;SDS011;7393;51.446;6.800;2023-04-03T04:25:32;4.63;;;2.10;;
14613;SDS011;7393;51.446;6.800;2023-04-03T04:27:59;5.03;;;2.10;;
14613;SDS011;7393;51.446;6.800;2023-04-03T04:30:26;4.17;;;2.10;;
14613;SDS011;7393;51.446;6.800;2023-04-03T04:32:53;3.80;;;2.10;;
14613;SDS011;7393;51.446;6.800;2023-04-03T04:35:20;5.70;;;1.83;;
14613;SDS011;7393;51.446;6.800;2023-04-03T04:37:47;5.10;;;1.90;;
14613;SDS011;7393;51.446;6.800;2023-04-03T04:40:14;5.03;;;2.00;;
14613;SDS011;7393;51.446;6.800;2023-04-03T04:42:42;4.90;;;1.90;;
14613;SDS011;7393;51.446;6.800;2023-04-03T04:45:09;4.30;;;2.03;;
14613;SDS011;7393;51.446;6.800;2023-04-03T04:47:36;5.13;;;1.93;;
14613;SDS011;7393;51.446;6.800;2023-04-03T04:50:03;4.40;;;2.17;;
14613;SDS011;7393;51.446;6.800;2023-04-03T04:52:31;5.23;;;2.27;;
14613;SDS011;7393;51.446;6.800;2023-04-03T04:54:58;4.50;;;2.17;;
14613;SDS011;7393;51.446;6.800;2023-04-03T04:57:24;4.80;;;1.93;;
14613;SDS011;7393;51.446;6.800;2023-04-03T04:59:53;5.03;;;2.30;;
14613;SDS011;7393;51.446;6.800;2023-04-03T05:02:19;5.80;;;1.80;;
14613;SDS011;7393;51.446;6.800;2023-04-03T05:04:46;5.23;;;2.30;;
14613;SDS011;7393;51.446;6.800;2023-04-03T05:07:15;6.60;;;2.00;;
14613;SDS011;7393;51.446;6.800;2023-04-03T05:09:42;8.57;;;2.60;;
14613;SDS011;7393;51.446;6.800;2023-04-03T05:12:08;7.17;;;2.23;;
14613;SDS011;7393;51.446;6.800;2023-04-03T05:14:35;7.30;;;2.07;;
14613;SDS011;7393;51.446;6.800;2023-04-03T05:17:03;4.97;;;2.40;;
14613;SDS011;7393;51.446;6.800;2023-04-03T05:19:30;5.60;;;2.37;;
14613;SDS011;7393;51.446;6.800;2023-04-03T05:21:57;5.20;;;2.23;;
14613;SDS011;7393;51.446;6.800;2023-04-03T05:24:23;6.47;;;2.73;;
14613;SDS011;7393;51.446;6.800;2023-04-03T05:26:51;6.70;;;2.80;;
14613;SDS011;7393;51.446;6.800;2023-04-03T05:29:18;5.87;;;2.70;;
14613;SDS011;7393;51.446;6.800;2023-04-03T05:31:44;6.60;;;2.67;;
14613;SDS011;7393;51.446;6.800;2023-04-03T05:34:12;4.67;;;2.40;;
14613;SDS011;7393;51.446;6.800;2023-04-03T05:36:39;6.20;;;2.50;;
14613;SDS011;7393;51.446;6.800;2023-04-03T05:39:06;6.00;;;3.07;;
14613;SDS011;7393;51.446;6.800;2023-04-03T05:41:33;5.40;;;2.10;;
14613;SDS011;7393;51.446;6.800;2023-04-03T05:44:00;6.97;;;2.23;;
14613;SDS011;7393;51.446;6.800;2023-04-03T05:46:27;4.40;;;3.00;;
14613;SDS011;7393;51.446;6.800;2023-04-03T05:48:53;7.97;;;2.70;;
14613;SDS011;7393;51.446;6.800;2023-04-03T05:51:24;8.73;;;2.63;;
14613;SDS011;7393;51.446;6.800;2023-04-03T05:53:56;7.57;;;2.50;;
14613;SDS011;7393;51.446;6.800;2023-04-03T05:56:27;7.40;;;2.50;;
14613;SDS011;7393;51.446;6.800;2023-04-03T05:58:54;9.30;;;2.53;;
14613;SDS011;7393;51.446;6.800;2023-04-03T06:01:21;6.60;;;2.53;;
14613;SDS011;7393;51.446;6.800;2023-04-03T06:03:48;6.83;;;2.63;;
14613;SDS011;7393;51.446;6.800;2023-04-03T06:06:15;5.37;;;2.67;;
14613;SDS011;7393;51.446;6.800;2023-04-03T06:08:43;8.23;;;2.97;;
14613;SDS011;7393;51.446;6.800;2023-04-03T06:11:11;6.47;;;2.53;;
14613;SDS011;7393;51.446;6.800;2023-04-03T06:13:38;10.87;;;3.20;;
14613;SDS011;7393;51.446;6.800;2023-04-03T06:16:05;9.17;;;2.90;;
14613;SDS011;7393;51.446;6.800;2023-04-03T06:18:32;9.97;;;3.40;;
14613;SDS011;7393;51.446;6.800;2023-04-03T06:20:59;6.50;;;2.47;;
14613;SDS011;7393;51.446;6.800;2023-04-03T06:23:25;6.63;;;2.60;;
14613;SDS011;7393;51.446;6.800;2023-04-03T06:25:54;4.20;;;2.20;;
14613;SDS011;7393;51.446;6.800;2023-04-03T06:28:20;7.87;;;2.37;;
14613;SDS011;7393;51.446;6.800;2023-04-03T06:30:47;6.70;;;2.73;;
14613;SDS011;7393;51.446;6.800;2023-04-03T06:33:14;6.80;;;2.57;;
14613;SDS011;7393;51.446;6.800;2023-04-03T06:35:40;9.63;;;2.90;;
14613;SDS011;7393;51.446;6.800;2023-04-03T06:38:07;7.50;;;2.70;;
14613;SDS011;7393;51.446;6.800;2023-04-03T06:40:35;4.80;;;2.20;;
14613;SDS011;7393;51.446;6.800;2023-04-03T06:43:03;4.57;;;2.30;;
14613;SDS011;7393;51.446;6.800;2023-04-03T06:45:30;4.43;;;2.07;;
14613;SDS011;7393;51.446;6.800;2023-04-03T06:47:57;7.13;;;2.53;;
14613;SDS011;7393;51.446;6.800;2023-04-03T06:50:24;6.37;;;2.50;;
14613;SDS011;7393;51.446;6.800;2023-04-03T06:52:51;8.43;;;2.67;;
14613;SDS011;7393;51.446;6.800;2023-04-03T06:55:17;5.10;;;2.17;;
14613;SDS011;7393;51.446;6.800;2023-04-03T06:57:44;6.20;;;2.40;;
14613;SDS011;7393;51.446;6.800;2023-04-03T07:00:13;6.77;;;2.50;;
14613;SDS011;7393;51.446;6.800;2023-04-03T07:02:41;10.03;;;2.53;;
14613;SDS011;7393;51.446;6.800;2023-04-03T07:05:08;8.83;;;3.03;;
14613;SDS011;7393;51.446;6.800;2023-04-03T07:07:35;6.37;;;3.17;;
14613;SDS011;7393;51.446;6.800;2023-04-03T07:10:03;8.23;;;2.70;;
14613;SDS011;7393;51.446;6.800;2023-04-03T07:12:31;4.37;;;2.10;;
14613;SDS011;7393;51.446;6.800;2023-04-03T07:14:58;4.13;;;2.00;;
14613;SDS011;7393;51.446;6.800;2023-04-03T07:17:26;7.17;;;2.67;;
14613;SDS011;7393;51.446;6.800;2023-04-03T07:19:53;5.63;;;2.30;;
14613;SDS011;7393;51.446;6.800;2023-04-03T07:22:19;6.47;;;2.23;;
14613;SDS011;7393;51.446;6.800;2023-04-03T07:24:46;4.00;;;2.30;;
14613;SDS011;7393;51.446;6.800;2023-04-03T07:27:13;8.07;;;2.33;;
14613;SDS011;7393;51.446;6.800;2023-04-03T07:29:40;4.90;;;2.10;;
14613;SDS011;7393;51.446;6.800;2023-04-03T07:32:07;9.47;;;2.73;;
14613;SDS011;7393;51.446;6.800;2023-04-03T07:34:36;7.60;;;2.57;;
14613;SDS011;7393;51.446;6.800;2023-04-03T07:37:03;4.23;;;2.23;;
14613;SDS011;7393;51.446;6.800;2023-04-03T07:39:30;5.47;;;2.37;;
14613;SDS011;7393;51.446;6.800;2023-04-03T07:41:57;5.67;;;2.30;;
14613;SDS011;7393;51.446;6.800;2023-04-03T07:44:24;6.33;;;2.93;;
14613;SDS011;7393;51.446;6.800;2023-04-03T07:46:51;6.97;;;2.47;;
14613;SDS011;7393;51.446;6.800;2023-04-03T07:49:18;6.00;;;2.37;;
14613;SDS011;7393;51.446;6.800;2023-04-03T07:51:46;12.60;;;2.57;;
14613;SDS011;7393;51.446;6.800;2023-04-03T07:54:13;9.03;;;2.50;;
14613;SDS011;7393;51.446;6.800;2023-04-03T07:56:40;7.30;;;2.23;;
14613;SDS011;7393;51.446;6.800;2023-04-03T07:59:07;11.97;;;2.40;;
14613;SDS011;7393;51.446;6.800;2023-04-03T08:01:35;4.03;;;2.03;;
14613;SDS011;7393;51.446;6.800;2023-04-03T08:04:02;4.77;;;1.87;;
14613;SDS011;7393;51.446;6.800;2023-04-03T08:06:30;5.37;;;2.10;;
14613;SDS011;7393;51.446;6.800;2023-04-03T08:09:01;5.67;;;1.90;;
14613;SDS011;7393;51.446;6.800;2023-04-03T08:11:28;4.20;;;1.83;;
14613;SDS011;7393;51.446;6.800;2023-04-03T08:13:57;5.90;;;2.13;;
14613;SDS011;7393;51.446;6.800;2023-04-03T08:16:24;5.30;;;2.10;;
14613;SDS011;7393;51.446;6.800;2023-04-03T08:18:52;3.23;;;2.13;;
14613;SDS011;7393;51.446;6.800;2023-04-03T08:21:19;4.63;;;2.10;;
14613;SDS011;7393;51.446;6.800;2023-04-03T08:23:47;9.57;;;2.30;;
14613;SDS011;7393;51.446;6.800;2023-04-03T08:26:16;5.47;;;2.00;;
14613;SDS011;7393;51.446;6.800;2023-04-03T08:28:45;3.70;;;2.10;;
14613;SDS011;7393;51.446;6.800;2023-04-03T08:31:13;3.93;;;1.80;;
14613;SDS011;7393;51.446;6.800;2023-04-03T08:33:43;5.37;;;1.87;;
14613;SDS011;7393;51.446;6.800;2023-04-03T08:36:15;4.83;;;1.77;;
14613;SDS011;7393;51.446;6.800;2023-04-03T08:38:43;4.83;;;1.87;;
14613;SDS011;7393;51.446;6.800;2023-04-03T08:41:11;3.10;;;1.60;;
14613;SDS011;7393;51.446;6.800;2023-04-03T08:43:45;2.77;;;1.67;;
14613;SDS011;7393;51.446;6.800;2023-04-03T08:46:22;2.30;;;1.50;;
14613;SDS011;7393;51.446;6.800;2023-04-03T08:48:58;3.77;;;1.70;;
14613;SDS011;7393;51.446;6.800;2023-04-03T08:51:25;3.33;;;1.40;;
14613;SDS011;7393;51.446;6.800;2023-04-03T08:53:54;3.40;;;1.53;;
14613;SDS011;7393;51.446;6.800;2023-04-03T08:56:25;4.13;;;1.60;;
14613;SDS011;7393;51.446;6.800;2023-04-03T08:58:55;6.83;;;2.03;;
14613;SDS011;7393;51.446;6.800;2023-04-03T09:01:25;5.87;;;1.80;;
14613;SDS011;7393;51.446;6.800;2023-04-03T09:03:55;3.50;;;1.47;;
14613;SDS011;7393;51.446;6.800;2023-04-03T09:06:23;5.37;;;1.77;;
14613;SDS011;7393;51.446;6.800;2023-04-03T09:09:04;3.70;;;1.50;;
14613;SDS011;7393;51.446;6.800;2023-04-03T09:11:41;4.67;;;1.70;;
14613;SDS011;7393;51.446;6.800;2023-04-03T09:14:15;5.20;;;1.80;;
14613;SDS011;7393;51.446;6.800;2023-04-03T09:16:49;3.77;;;1.40;;
14613;SDS011;7393;51.446;6.800;2023-04-03T09:19:21;2.57;;;1.40;;
14613;SDS011;7393;51.446;6.800;2023-04-03T09:21:57;3.17;;;1.37;;
14613;SDS011;7393;51.446;6.800;2023-04-03T09:24:26;4.10;;;1.37;;
14613;SDS011;7393;51.446;6.800;2023-04-03T09:26:55;6.97;;;1.60;;
14613;SDS011;7393;51.446;6.800;2023-04-03T09:29:26;2.00;;;1.20;;
14613;SDS011;7393;51.446;6.800;2023-04-03T09:31:56;2.43;;;1.30;;
14613;SDS011;7393;51.446;6.800;2023-04-03T09:34:26;3.80;;;1.30;;
14613;SDS011;7393;51.446;6.800;2023-04-03T09:36:55;2.13;;;1.10;;
14613;SDS011;7393;51.446;6.800;2023-04-03T09:39:23;3.27;;;1.40;;
14613;SDS011;7393;51.446;6.800;2023-04-03T09:41:56;6.00;;;1.63;;
14613;SDS011;7393;51.446;6.800;2023-04-03T09:44:27;5.87;;;1.30;;
14613;SDS011;7393;51.446;6.800;2023-04-03T09:46:56;2.43;;;0.90;;
14613;SDS011;7393;51.446;6.800;2023-04-03T09:49:23;4.20;;;0.80;;
14613;SDS011;7393;51.446;6.800;2023-04-03T09:51:50;4.13;;;1.10;;
14613;SDS011;7393;51.446;6.800;2023-04-03T09:54:31;2.60;;;1.37;;
14613;SDS011;7393;51.446;6.800;2023-04-03T09:57:04;1.50;;;0.90;;
14613;SDS011;7393;51.446;6.800;2023-04-03T09:59:36;3.23;;;1.40;;
14613;SDS011;7393;51.446;6.800;2023-04-03T10:02:19;2.90;;;1.20;;
14613;SDS011;7393;51.446;6.800;2023-04-03T10:04:57;4.27;;;1.03;;
14613;SDS011;7393;51.446;6.800;2023-04-03T10:07:25;2.83;;;1.00;;
14613;SDS011;7393;51.446;6.800;2023-04-03T10:09:55;4.30;;;0.83;;
14613;SDS011;7393;51.446;6.800;2023-04-03T10:12:23;2.13;;;1.00;;
14613;SDS011;7393;51.446;6.800;2023-04-03T10:14:55;4.13;;;1.20;;
14613;SDS011;7393;51.446;6.800;2023-04-03T10:17:24;4.30;;;1.10;;
14613;SDS011;7393;51.446;6.800;2023-04-03T10:20:00;2.83;;;0.80;;
14613;SDS011;7393;51.446;6.800;2023-04-03T10:22:35;2.03;;;1.20;;
14613;SDS011;7393;51.446;6.800;2023-04-03T10:25:11;1.97;;;1.10;;
14613;SDS011;7393;51.446;6.800;2023-04-03T10:27:46;0.90;;;0.70;;
14613;SDS011;7393;51.446;6.800;2023-04-03T10:30:21;3.13;;;1.10;;
14613;SDS011;7393;51.446;6.800;2023-04-03T10:32:58;4.33;;;0.90;;
14613;SDS011;7393;51.446;6.800;2023-04-03T10:35:37;2.90;;;1.00;;
14613;SDS011;7393;51.446;6.800;2023-04-03T10:38:12;3.27;;;1.13;;
14613;SDS011;7393;51.446;6.800;2023-04-03T10:40:44;5.73;;;1.57;;
14613;SDS011;7393;51.446;6.800;2023-04-03T10:43:18;3.70;;;1.07;;
14613;SDS011;7393;51.446;6.800;2023-04-03T10:45:55;7.20;;;1.50;;
14613;SDS011;7393;51.446;6.800;2023-04-03T10:48:29;3.23;;;1.10;;
14613;SDS011;7393;51.446;6.800;2023-04-03T10:51:09;2.80;;;1.10;;
14613;SDS011;7393;51.446;6.800;2023-04-03T10:53:42;3.53;;;1.20;;
14613;SDS011;7393;51.446;6.800;2023-04-03T10:56:15;8.60;;;1.70;;
14613;SDS011;7393;51.446;6.800;2023-04-03T10:58:48;5.13;;;1.10;;
14613;SDS011;7393;51.446;6.800;2023-04-03T11:01:21;2.30;;;1.20;;
14613;SDS011;7393;51.446;6.800;2023-04-03T11:03:51;2.70;;;1.20;;
14613;SDS011;7393;51.446;6.800;2023-04-03T11:06:21;2.40;;;1.30;;
14613;SDS011;7393;51.446;6.800;2023-04-03T11:08:53;4.43;;;1.10;;
14613;SDS011;7393;51.446;6.800;2023-04-03T11:11:24;2.83;;;1.30;;
14613;SDS011;7393;51.446;6.800;2023-04-03T11:13:56;4.27;;;1.30;;
14613;SDS011;7393;51.446;6.800;2023-04-03T11:16:29;3.70;;;1.73;;
14613;SDS011;7393;51.446;6.800;2023-04-03T11:18:59;6.80;;;1.90;;
14613;SDS011;7393;51.446;6.800;2023-04-03T11:21:29;12.33;;;2.00;;
14613;SDS011;7393;51.446;6.800;2023-04-03T11:24:01;4.43;;;1.50;;
14613;SDS011;7393;51.446;6.800;2023-04-03T11:26:36;9.30;;;2.43;;
14613;SDS011;7393;51.446;6.800;2023-04-03T11:29:07;6.17;;;1.40;;
14613;SDS011;7393;51.446;6.800;2023-04-03T11:31:42;3.27;;;1.27;;
14613;SDS011;7393;51.446;6.800;2023-04-03T11:34:25;3.40;;;1.40;;
14613;SDS011;7393;51.446;6.800;2023-04-03T11:37:01;3.17;;;1.43;;
14613;SDS011;7393;51.446;6.800;2023-04-03T11:39:32;2.53;;;1.43;;
14613;SDS011;7393;51.446;6.800;2023-04-03T11:42:13;2.03;;;1.27;;
14613;SDS011;7393;51.446;6.800;2023-04-03T11:44:42;4.47;;;1.20;;
14613;SDS011;7393;51.446;6.800;2023-04-03T11:47:11;3.53;;;1.17;;
14613;SDS011;7393;51.446;6.800;2023-04-03T11:49:59;4.33;;;1.40;;
14613;SDS011;7393;51.446;6.800;2023-04-03T11:52:54;3.40;;;1.33;;
14613;SDS011;7393;51.446;6.800;2023-04-03T11:58:18;2.73;;;1.20;;
14613;SDS011;7393;51.446;6.800;2023-04-03T12:00:55;3.03;;;1.47;;
14613;SDS011;7393;51.446;6.800;2023-04-03T12:12:42;5.63;;;1.43;;
14613;SDS011;7393;51.446;6.800;2023-04-03T12:15:26;2.77;;;1.27;;
14613;SDS011;7393;51.446;6.800;2023-04-03T12:18:37;3.00;;;1.07;;
14613;SDS011;7393;51.446;6.800;2023-04-03T12:21:09;2.97;;;1.40;;
14613;SDS011;7393;51.446;6.800;2023-04-03T12:23:36;2.43;;;1.20;;
14613;SDS011;7393;51.446;6.800;2023-04-03T12:26:25;1.40;;;1.00;;
14613;SDS011;7393;51.446;6.800;2023-04-03T12:28:54;4.97;;;1.30;;
14613;SDS011;7393;51.446;6.800;2023-04-03T12:31:22;2.43;;;1.30;;
14613;SDS011;7393;51.446;6.800;2023-04-03T12:34:01;2.90;;;1.17;;
14613;SDS011;7393;51.446;6.800;2023-04-03T12:36:41;1.20;;;1.00;;
14613;SDS011;7393;51.446;6.800;2023-04-03T12:39:17;2.47;;;1.23;;
14613;SDS011;7393;51.446;6.800;2023-04-03T12:42:04;2.13;;;1.00;;
14613;SDS011;7393;51.446;6.800;2023-04-03T12:44:49;3.43;;;1.10;;
14613;SDS011;7393;51.446;6.800;2023-04-03T12:47:27;2.13;;;1.10;;
14613;SDS011;7393;51.446;6.800;2023-04-03T12:49:57;3.97;;;1.20;;
14613;SDS011;7393;51.446;6.800;2023-04-03T12:52:35;3.93;;;1.10;;
14613;SDS011;7393;51.446;6.800;2023-04-03T12:55:08;2.40;;;1.20;;
14613;SDS011;7393;51.446;6.800;2023-04-03T12:57:45;1.60;;;0.93;;
14613;SDS011;7393;51.446;6.800;2023-04-03T13:00:19;3.30;;;1.17;;
14613;SDS011;7393;51.446;6.800;2023-04-03T13:02:55;2.73;;;1.00;;
14613;SDS011;7393;51.446;6.800;2023-04-03T13:05:22;3.53;;;1.23;;
14613;SDS011;7393;51.446;6.800;2023-04-03T13:07:52;3.33;;;1.23;;
14613;SDS011;7393;51.446;6.800;2023-04-03T13:10:23;4.00;;;1.27;;
14613;SDS011;7393;51.446;6.800;2023-04-03T13:12:52;1.77;;;1.00;;
14613;SDS011;7393;51.446;6.800;2023-04-03T13:15:21;2.13;;;0.97;;
14613;SDS011;7393;51.446;6.800;2023-04-03T13:17:49;3.20;;;1.03;;
14613;SDS011;7393;51.446;6.800;2023-04-03T13:20:19;2.93;;;0.97;;
14613;SDS011;7393;51.446;6.800;2023-04-03T13:22:49;2.17;;;1.20;;
14613;SDS011;7393;51.446;6.800;2023-04-03T13:25:25;5.37;;;1.47;;
14613;SDS011;7393;51.446;6.800;2023-04-03T13:27:56;3.70;;;1.10;;
14613;SDS011;7393;51.446;6.800;2023-04-03T13:30:26;3.90;;;1.07;;
14613;SDS011;7393;51.446;6.800;2023-04-03T13:32:55;3.07;;;1.20;;
14613;SDS011;7393;51.446;6.800;2023-04-03T13:35:28;2.60;;;1.40;;
14613;SDS011;7393;51.446;6.800;2023-04-03T13:37:59;3.43;;;1.30;;
14613;SDS011;7393;51.446;6.800;2023-04-03T13:40:27;1.80;;;1.10;;
14613;SDS011;7393;51.446;6.800;2023-04-03T13:43:01;1.67;;;1.37;;
14613;SDS011;7393;51.446;6.800;2023-04-03T13:45:30;2.43;;;1.20;;
14613;SDS011;7393;51.446;6.800;2023-04-03T13:48:10;3.87;;;1.33;;
14613;SDS011;7393;51.446;6.800;2023-04-03T13:50:49;2.30;;;1.10;;
14613;SDS011;7393;51.446;6.800;2023-04-03T13:53:22;3.57;;;1.30;;
14613;SDS011;7393;51.446;6.800;2023-04-03T13:55:54;2.77;;;1.10;;
14613;SDS011;7393;51.446;6.800;2023-04-03T13:58:24;2.23;;;1.30;;
14613;SDS011;7393;51.446;6.800;2023-04-03T14:00:53;3.23;;;1.43;;
14613;SDS011;7393;51.446;6.800;2023-04-03T14:03:21;2.60;;;1.13;;
14613;SDS011;7393;51.446;6.800;2023-04-03T14:05:50;2.20;;;1.10;;
14613;SDS011;7393;51.446;6.800;2023-04-03T14:08:17;4.23;;;1.73;;
14613;SDS011;7393;51.446;6.800;2023-04-03T14:10:46;2.67;;;1.10;;
14613;SDS011;7393;51.446;6.800;2023-04-03T14:13:14;3.10;;;1.13;;
14613;SDS011;7393;51.446;6.800;2023-04-03T14:15:43;1.30;;;1.17;;
14613;SDS011;7393;51.446;6.800;2023-04-03T14:18:11;2.77;;;1.37;;
14613;SDS011;7393;51.446;6.800;2023-04-03T14:20:38;3.10;;;1.07;;
14613;SDS011;7393;51.446;6.800;2023-04-03T14:23:05;3.67;;;1.00;;
14613;SDS011;7393;51.446;6.800;2023-04-03T14:25:32;1.97;;;1.30;;
14613;SDS011;7393;51.446;6.800;2023-04-03T14:28:01;2.17;;;1.20;;
14613;SDS011;7393;51.446;6.800;2023-04-03T14:30:38;2.53;;;1.40;;
14613;SDS011;7393;51.446;6.800;2023-04-03T14:33:05;1.73;;;1.00;;
14613;SDS011;7393;51.446;6.800;2023-04-03T14:35:32;2.97;;;1.20;;
14613;SDS011;7393;51.446;6.800;2023-04-03T14:37:59;1.90;;;1.00;;
14613;SDS011;7393;51.446;6.800;2023-04-03T14:40:26;2.13;;;0.90;;
14613;SDS011;7393;51.446;6.800;2023-04-03T14:42:54;1.90;;;0.97;;
14613;SDS011;7393;51.446;6.800;2023-04-03T14:45:23;2.50;;;0.90;;
14613;SDS011;7393;51.446;6.800;2023-04-03T14:47:52;2.23;;;1.23;;
14613;SDS011;7393;51.446;6.800;2023-04-03T14:50:22;1.60;;;0.93;;
14613;SDS011;7393;51.446;6.800;2023-04-03T14:52:51;2.37;;;1.10;;
14613;SDS011;7393;51.446;6.800;2023-04-03T14:55:20;2.17;;;1.10;;
14613;SDS011;7393;51.446;6.800;2023-04-03T14:57:48;2.33;;;1.07;;
14613;SDS011;7393;51.446;6.800;2023-04-03T15:00:16;3.30;;;1.23;;
14613;SDS011;7393;51.446;6.800;2023-04-03T15:02:46;1.57;;;1.00;;
14613;SDS011;7393;51.446;6.800;2023-04-03T15:05:14;2.00;;;1.10;;
14613;SDS011;7393;51.446;6.800;2023-04-03T15:07:42;3.07;;;1.10;;
14613;SDS011;7393;51.446;6.800;2023-04-03T15:10:17;1.80;;;1.00;;
14613;SDS011;7393;51.446;6.800;2023-04-03T15:12:45;3.83;;;1.43;;
14613;SDS011;7393;51.446;6.800;2023-04-03T15:15:13;4.23;;;1.50;;
14613;SDS011;7393;51.446;6.800;2023-04-03T15:17:40;4.47;;;1.60;;
14613;SDS011;7393;51.446;6.800;2023-04-03T15:20:12;2.00;;;1.10;;
14613;SDS011;7393;51.446;6.800;2023-04-03T15:22:41;2.07;;;0.97;;
14613;SDS011;7393;51.446;6.800;2023-04-03T15:25:08;1.40;;;1.13;;
14613;SDS011;7393;51.446;6.800;2023-04-03T15:27:35;3.53;;;1.20;;
14613;SDS011;7393;51.446;6.800;2023-04-03T15:30:03;1.77;;;1.17;;